sensor_id;sensor_type;location;lat;lon;timestamp;temperature;humidity
47338;DHT22;33069;51.970;5.892;2023-11-19T00:02:29;13.00;91.60
47338;DHT22;33069;51.970;5.892;2023-11-19T00:05:15;13.00;91.60
47338;DHT22;33069;51.970;5.892;2023-11-19T00:08:01;13.00;91.60
47338;DHT22;33069;51.970;5.892;2023-11-19T00:10:47;13.00;91.50
47338;DHT22;33069;51.970;5.892;2023-11-19T00:13:33;13.00;91.50
47338;DHT22;33069;51.970;5.892;2023-11-19T00:16:19;13.10;91.40
47338;DHT22;33069;51.970;5.892;2023-11-19T00:19:05;13.10;91.30
47338;DHT22;33069;51.970;5.892;2023-11-19T00:21:51;13.10;91.30
47338;DHT22;33069;51.970;5.892;2023-11-19T00:24:37;13.20;91.30
47338;DHT22;33069;51.970;5.892;2023-11-19T00:27:23;13.20;91.20
47338;DHT22;33069;51.970;5.892;2023-11-19T00:30:09;13.20;91.10
47338;DHT22;33069;51.970;5.892;2023-11-19T00:32:56;13.20;91.10
47338;DHT22;33069;51.970;5.892;2023-11-19T00:35:42;13.20;91.00
47338;DHT22;33069;51.970;5.892;2023-11-19T00:38:27;13.20;90.90
47338;DHT22;33069;51.970;5.892;2023-11-19T00:41:15;13.30;90.90
47338;DHT22;33069;51.970;5.892;2023-11-19T00:44:02;13.20;90.80
47338;DHT22;33069;51.970;5.892;2023-11-19T00:46:48;13.20;90.70
47338;DHT22;33069;51.970;5.892;2023-11-19T00:49:34;13.30;90.60
47338;DHT22;33069;51.970;5.892;2023-11-19T00:52:20;13.20;90.40
47338;DHT22;33069;51.970;5.892;2023-11-19T00:55:07;13.30;90.30
47338;DHT22;33069;51.970;5.892;2023-11-19T00:57:53;13.30;90.20
47338;DHT22;33069;51.970;5.892;2023-11-19T01:00:42;13.30;90.20
47338;DHT22;33069;51.970;5.892;2023-11-19T01:03:28;13.30;90.00
47338;DHT22;33069;51.970;5.892;2023-11-19T01:06:14;13.30;89.90
47338;DHT22;33069;51.970;5.892;2023-11-19T01:09:01;13.30;89.90
47338;DHT22;33069;51.970;5.892;2023-11-19T01:11:47;13.30;89.70
47338;DHT22;33069;51.970;5.892;2023-11-19T01:14:33;13.30;89.60
47338;DHT22;33069;51.970;5.892;2023-11-19T01:17:19;13.30;89.40
47338;DHT22;33069;51.970;5.892;2023-11-19T01:20:06;13.40;89.30
47338;DHT22;33069;51.970;5.892;2023-11-19T01:22:52;13.40;89.20
47338;DHT22;33069;51.970;5.892;2023-11-19T01:25:38;13.50;89.10
47338;DHT22;33069;51.970;5.892;2023-11-19T01:28:24;13.50;88.90
47338;DHT22;33069;51.970;5.892;2023-11-19T01:31:11;13.50;88.70
47338;DHT22;33069;51.970;5.892;2023-11-19T01:33:58;13.50;88.70
47338;DHT22;33069;51.970;5.892;2023-11-19T01:36:44;13.50;88.50
47338;DHT22;33069;51.970;5.892;2023-11-19T01:39:32;13.50;88.40
47338;DHT22;33069;51.970;5.892;2023-11-19T01:42:18;13.50;88.40
47338;DHT22;33069;51.970;5.892;2023-11-19T01:45:04;13.50;88.30
47338;DHT22;33069;51.970;5.892;2023-11-19T01:47:52;13.50;88.10
47338;DHT22;33069;51.970;5.892;2023-11-19T01:50:38;13.50;88.10
47338;DHT22;33069;51.970;5.892;2023-11-19T01:53:25;13.50;87.90
47338;DHT22;33069;51.970;5.892;2023-11-19T01:56:13;13.50;87.90
47338;DHT22;33069;51.970;5.892;2023-11-19T01:59:02;13.50;87.80
47338;DHT22;33069;51.970;5.892;2023-11-19T02:01:48;13.50;87.80
47338;DHT22;33069;51.970;5.892;2023-11-19T02:04:36;13.50;87.70
47338;DHT22;33069;51.970;5.892;2023-11-19T02:07:24;13.40;87.70
47338;DHT22;33069;51.970;5.892;2023-11-19T02:10:11;13.40;87.60
47338;DHT22;33069;51.970;5.892;2023-11-19T02:13:02;13.40;87.50
47338;DHT22;33069;51.970;5.892;2023-11-19T02:15:51;13.40;87.40
47338;DHT22;33069;51.970;5.892;2023-11-19T02:18:37;13.40;87.30
47338;DHT22;33069;51.970;5.892;2023-11-19T02:21:23;13.40;87.10
47338;DHT22;33069;51.970;5.892;2023-11-19T02:24:12;13.50;86.90
47338;DHT22;33069;51.970;5.892;2023-11-19T02:27:08;13.40;86.80
47338;DHT22;33069;51.970;5.892;2023-11-19T02:29:57;13.40;86.80
47338;DHT22;33069;51.970;5.892;2023-11-19T02:32:43;13.40;86.70
47338;DHT22;33069;51.970;5.892;2023-11-19T02:35:29;13.40;86.70
47338;DHT22;33069;51.970;5.892;2023-11-19T02:38:18;13.40;86.50
47338;DHT22;33069;51.970;5.892;2023-11-19T02:41:04;13.50;86.40
47338;DHT22;33069;51.970;5.892;2023-11-19T02:43:51;13.40;86.30
47338;DHT22;33069;51.970;5.892;2023-11-19T02:46:37;13.30;86.20
47338;DHT22;33069;51.970;5.892;2023-11-19T02:49:23;13.40;86.20
47338;DHT22;33069;51.970;5.892;2023-11-19T02:52:09;13.30;86.20
47338;DHT22;33069;51.970;5.892;2023-11-19T02:54:56;13.20;86.30
47338;DHT22;33069;51.970;5.892;2023-11-19T02:57:42;13.20;86.40
47338;DHT22;33069;51.970;5.892;2023-11-19T03:00:34;13.20;86.10
47338;DHT22;33069;51.970;5.892;2023-11-19T03:03:27;13.20;86.00
47338;DHT22;33069;51.970;5.892;2023-11-19T03:06:24;13.10;85.90
47338;DHT22;33069;51.970;5.892;2023-11-19T03:09:10;13.10;85.80
47338;DHT22;33069;51.970;5.892;2023-11-19T03:11:56;13.00;85.70
47338;DHT22;33069;51.970;5.892;2023-11-19T03:14:42;13.00;85.90
47338;DHT22;33069;51.970;5.892;2023-11-19T03:17:30;12.90;85.90
47338;DHT22;33069;51.970;5.892;2023-11-19T03:20:16;12.90;85.80
47338;DHT22;33069;51.970;5.892;2023-11-19T03:23:02;12.90;85.60
47338;DHT22;33069;51.970;5.892;2023-11-19T03:25:48;12.80;85.70
47338;DHT22;33069;51.970;5.892;2023-11-19T03:28:34;12.80;85.70
47338;DHT22;33069;51.970;5.892;2023-11-19T03:31:20;12.80;85.70
47338;DHT22;33069;51.970;5.892;2023-11-19T03:34:06;12.80;85.80
47338;DHT22;33069;51.970;5.892;2023-11-19T03:36:52;12.80;85.50
47338;DHT22;33069;51.970;5.892;2023-11-19T03:39:38;12.70;85.60
47338;DHT22;33069;51.970;5.892;2023-11-19T03:42:24;12.60;85.70
47338;DHT22;33069;51.970;5.892;2023-11-19T03:45:10;12.60;86.00
47338;DHT22;33069;51.970;5.892;2023-11-19T03:47:55;12.50;85.90
47338;DHT22;33069;51.970;5.892;2023-11-19T03:50:42;12.50;86.10
47338;DHT22;33069;51.970;5.892;2023-11-19T03:53:28;12.40;86.20
47338;DHT22;33069;51.970;5.892;2023-11-19T03:56:14;12.30;86.20
47338;DHT22;33069;51.970;5.892;2023-11-19T03:59:00;12.30;86.20
47338;DHT22;33069;51.970;5.892;2023-11-19T04:01:46;12.30;86.30
47338;DHT22;33069;51.970;5.892;2023-11-19T04:04:32;12.20;86.40
47338;DHT22;33069;51.970;5.892;2023-11-19T04:07:18;12.10;86.40
47338;DHT22;33069;51.970;5.892;2023-11-19T04:10:05;12.10;86.70
47338;DHT22;33069;51.970;5.892;2023-11-19T04:12:51;12.00;86.70
47338;DHT22;33069;51.970;5.892;2023-11-19T04:15:37;11.90;86.90
47338;DHT22;33069;51.970;5.892;2023-11-19T04:18:22;11.90;86.90
47338;DHT22;33069;51.970;5.892;2023-11-19T04:21:09;11.80;86.70
47338;DHT22;33069;51.970;5.892;2023-11-19T04:23:55;11.80;86.50
47338;DHT22;33069;51.970;5.892;2023-11-19T04:26:41;11.80;86.40
47338;DHT22;33069;51.970;5.892;2023-11-19T04:29:30;11.80;86.10
47338;DHT22;33069;51.970;5.892;2023-11-19T04:32:16;11.80;86.00
47338;DHT22;33069;51.970;5.892;2023-11-19T04:35:02;11.70;86.00
47338;DHT22;33069;51.970;5.892;2023-11-19T04:37:49;11.80;85.80
47338;DHT22;33069;51.970;5.892;2023-11-19T04:40:34;11.80;85.50
47338;DHT22;33069;51.970;5.892;2023-11-19T04:43:20;11.80;85.40
47338;DHT22;33069;51.970;5.892;2023-11-19T04:46:07;11.70;85.40
47338;DHT22;33069;51.970;5.892;2023-11-19T04:48:53;11.70;85.30
47338;DHT22;33069;51.970;5.892;2023-11-19T04:51:42;11.70;85.10
47338;DHT22;33069;51.970;5.892;2023-11-19T04:54:28;11.70;84.90
47338;DHT22;33069;51.970;5.892;2023-11-19T04:57:14;11.70;84.90
47338;DHT22;33069;51.970;5.892;2023-11-19T05:00:00;11.70;85.00
47338;DHT22;33069;51.970;5.892;2023-11-19T05:02:46;11.70;84.70
47338;DHT22;33069;51.970;5.892;2023-11-19T05:05:32;11.70;84.80
47338;DHT22;33069;51.970;5.892;2023-11-19T05:08:18;11.70;84.80
47338;DHT22;33069;51.970;5.892;2023-11-19T05:11:04;11.70;84.90
47338;DHT22;33069;51.970;5.892;2023-11-19T05:13:51;11.60;85.00
47338;DHT22;33069;51.970;5.892;2023-11-19T05:16:40;11.60;85.10
47338;DHT22;33069;51.970;5.892;2023-11-19T05:19:26;11.70;85.10
47338;DHT22;33069;51.970;5.892;2023-11-19T05:22:11;11.70;85.10
47338;DHT22;33069;51.970;5.892;2023-11-19T05:24:58;11.70;85.00
47338;DHT22;33069;51.970;5.892;2023-11-19T05:27:45;11.70;84.90
47338;DHT22;33069;51.970;5.892;2023-11-19T05:30:31;11.70;84.90
47338;DHT22;33069;51.970;5.892;2023-11-19T05:33:17;11.70;84.80
47338;DHT22;33069;51.970;5.892;2023-11-19T05:36:04;11.70;84.80
47338;DHT22;33069;51.970;5.892;2023-11-19T05:38:50;11.70;84.70
47338;DHT22;33069;51.970;5.892;2023-11-19T05:41:36;11.80;84.50
47338;DHT22;33069;51.970;5.892;2023-11-19T05:44:22;11.80;84.10
47338;DHT22;33069;51.970;5.892;2023-11-19T05:47:08;11.80;84.00
47338;DHT22;33069;51.970;5.892;2023-11-19T05:49:54;11.80;84.00
47338;DHT22;33069;51.970;5.892;2023-11-19T05:52:40;11.80;83.90
47338;DHT22;33069;51.970;5.892;2023-11-19T05:55:25;11.80;84.00
47338;DHT22;33069;51.970;5.892;2023-11-19T05:58:13;11.80;83.80
47338;DHT22;33069;51.970;5.892;2023-11-19T06:01:00;11.80;83.80
47338;DHT22;33069;51.970;5.892;2023-11-19T06:03:49;11.70;83.70
47338;DHT22;33069;51.970;5.892;2023-11-19T06:06:36;11.70;83.70
47338;DHT22;33069;51.970;5.892;2023-11-19T06:09:22;11.80;83.70
47338;DHT22;33069;51.970;5.892;2023-11-19T06:12:11;11.70;83.70
47338;DHT22;33069;51.970;5.892;2023-11-19T06:14:58;11.70;83.80
47338;DHT22;33069;51.970;5.892;2023-11-19T06:17:43;11.70;84.00
47338;DHT22;33069;51.970;5.892;2023-11-19T06:20:30;11.70;84.00
47338;DHT22;33069;51.970;5.892;2023-11-19T06:23:17;11.60;84.00
47338;DHT22;33069;51.970;5.892;2023-11-19T06:26:03;11.60;84.10
47338;DHT22;33069;51.970;5.892;2023-11-19T06:28:50;11.50;84.10
47338;DHT22;33069;51.970;5.892;2023-11-19T06:31:36;11.60;84.20
47338;DHT22;33069;51.970;5.892;2023-11-19T06:34:22;11.60;84.10
47338;DHT22;33069;51.970;5.892;2023-11-19T06:37:08;11.50;84.10
47338;DHT22;33069;51.970;5.892;2023-11-19T06:39:55;11.50;84.30
47338;DHT22;33069;51.970;5.892;2023-11-19T06:42:40;11.50;84.30
47338;DHT22;33069;51.970;5.892;2023-11-19T06:45:26;11.50;84.50
47338;DHT22;33069;51.970;5.892;2023-11-19T06:48:12;11.50;84.50
47338;DHT22;33069;51.970;5.892;2023-11-19T06:50:59;11.40;84.60
47338;DHT22;33069;51.970;5.892;2023-11-19T06:53:45;11.40;84.60
47338;DHT22;33069;51.970;5.892;2023-11-19T06:56:31;11.50;84.50
47338;DHT22;33069;51.970;5.892;2023-11-19T06:59:17;11.50;84.40
47338;DHT22;33069;51.970;5.892;2023-11-19T07:02:03;11.50;84.40
47338;DHT22;33069;51.970;5.892;2023-11-19T07:04:51;11.50;84.30
47338;DHT22;33069;51.970;5.892;2023-11-19T07:07:37;11.50;84.30
47338;DHT22;33069;51.970;5.892;2023-11-19T07:10:23;11.50;84.40
47338;DHT22;33069;51.970;5.892;2023-11-19T07:13:09;11.50;84.50
47338;DHT22;33069;51.970;5.892;2023-11-19T07:15:58;11.50;84.40
47338;DHT22;33069;51.970;5.892;2023-11-19T07:18:44;11.50;84.40
47338;DHT22;33069;51.970;5.892;2023-11-19T07:21:30;11.60;84.40
47338;DHT22;33069;51.970;5.892;2023-11-19T07:24:16;11.60;84.10
47338;DHT22;33069;51.970;5.892;2023-11-19T07:27:02;11.60;84.10
47338;DHT22;33069;51.970;5.892;2023-11-19T07:29:49;11.50;84.20
47338;DHT22;33069;51.970;5.892;2023-11-19T07:32:35;11.50;83.90
47338;DHT22;33069;51.970;5.892;2023-11-19T07:35:21;11.50;84.00
47338;DHT22;33069;51.970;5.892;2023-11-19T07:38:07;11.50;84.00
47338;DHT22;33069;51.970;5.892;2023-11-19T07:40:53;11.50;83.90
47338;DHT22;33069;51.970;5.892;2023-11-19T07:43:43;11.50;84.00
47338;DHT22;33069;51.970;5.892;2023-11-19T07:46:30;11.50;83.90
47338;DHT22;33069;51.970;5.892;2023-11-19T07:49:16;11.60;83.70
47338;DHT22;33069;51.970;5.892;2023-11-19T07:52:02;11.60;83.60
47338;DHT22;33069;51.970;5.892;2023-11-19T07:54:48;11.60;83.50
47338;DHT22;33069;51.970;5.892;2023-11-19T07:57:34;11.70;83.50
47338;DHT22;33069;51.970;5.892;2023-11-19T08:00:20;11.70;83.40
47338;DHT22;33069;51.970;5.892;2023-11-19T08:03:06;11.80;83.20
47338;DHT22;33069;51.970;5.892;2023-11-19T08:05:55;11.70;83.10
47338;DHT22;33069;51.970;5.892;2023-11-19T08:08:42;11.80;83.10
47338;DHT22;33069;51.970;5.892;2023-11-19T08:11:28;11.80;82.90
47338;DHT22;33069;51.970;5.892;2023-11-19T08:14:15;11.80;83.00
47338;DHT22;33069;51.970;5.892;2023-11-19T08:17:00;11.90;82.80
47338;DHT22;33069;51.970;5.892;2023-11-19T08:19:46;11.90;82.70
47338;DHT22;33069;51.970;5.892;2023-11-19T08:22:32;11.90;82.40
47338;DHT22;33069;51.970;5.892;2023-11-19T08:25:18;11.90;82.50
47338;DHT22;33069;51.970;5.892;2023-11-19T08:28:04;11.90;82.30
47338;DHT22;33069;51.970;5.892;2023-11-19T08:30:51;12.00;82.40
47338;DHT22;33069;51.970;5.892;2023-11-19T08:33:37;12.10;82.10
47338;DHT22;33069;51.970;5.892;2023-11-19T08:36:22;12.10;81.50
47338;DHT22;33069;51.970;5.892;2023-11-19T08:39:08;12.10;81.60
47338;DHT22;33069;51.970;5.892;2023-11-19T08:41:54;12.10;81.80
47338;DHT22;33069;51.970;5.892;2023-11-19T08:44:41;12.20;81.30
47338;DHT22;33069;51.970;5.892;2023-11-19T08:47:32;12.20;81.40
47338;DHT22;33069;51.970;5.892;2023-11-19T08:50:18;12.10;81.50
47338;DHT22;33069;51.970;5.892;2023-11-19T08:53:04;12.20;81.30
47338;DHT22;33069;51.970;5.892;2023-11-19T08:55:52;12.20;80.90
47338;DHT22;33069;51.970;5.892;2023-11-19T08:58:38;12.20;81.20
47338;DHT22;33069;51.970;5.892;2023-11-19T09:01:24;12.30;81.00
47338;DHT22;33069;51.970;5.892;2023-11-19T09:04:10;12.30;80.90
47338;DHT22;33069;51.970;5.892;2023-11-19T09:06:57;12.30;80.70
47338;DHT22;33069;51.970;5.892;2023-11-19T09:09:43;12.40;80.40
47338;DHT22;33069;51.970;5.892;2023-11-19T09:12:29;12.40;80.30
47338;DHT22;33069;51.970;5.892;2023-11-19T09:15:15;12.50;80.40
47338;DHT22;33069;51.970;5.892;2023-11-19T09:18:02;12.50;80.10
47338;DHT22;33069;51.970;5.892;2023-11-19T09:20:48;12.50;80.20
47338;DHT22;33069;51.970;5.892;2023-11-19T09:23:34;12.50;80.00
47338;DHT22;33069;51.970;5.892;2023-11-19T09:26:24;12.50;79.70
47338;DHT22;33069;51.970;5.892;2023-11-19T09:29:11;12.60;79.50
47338;DHT22;33069;51.970;5.892;2023-11-19T09:31:57;12.60;79.70
47338;DHT22;33069;51.970;5.892;2023-11-19T09:34:43;12.60;79.50
47338;DHT22;33069;51.970;5.892;2023-11-19T09:37:29;12.60;79.40
47338;DHT22;33069;51.970;5.892;2023-11-19T09:40:15;12.70;79.30
47338;DHT22;33069;51.970;5.892;2023-11-19T09:43:01;12.70;79.40
47338;DHT22;33069;51.970;5.892;2023-11-19T09:45:51;12.70;79.10
47338;DHT22;33069;51.970;5.892;2023-11-19T09:48:38;12.70;79.20
47338;DHT22;33069;51.970;5.892;2023-11-19T09:51:24;12.70;78.90
47338;DHT22;33069;51.970;5.892;2023-11-19T09:54:10;12.70;79.10
47338;DHT22;33069;51.970;5.892;2023-11-19T09:56:59;12.70;79.50
47338;DHT22;33069;51.970;5.892;2023-11-19T09:59:49;12.70;79.30
47338;DHT22;33069;51.970;5.892;2023-11-19T10:02:36;12.90;79.20
47338;DHT22;33069;51.970;5.892;2023-11-19T10:05:23;12.90;78.70
47338;DHT22;33069;51.970;5.892;2023-11-19T10:08:10;12.90;79.20
47338;DHT22;33069;51.970;5.892;2023-11-19T10:10:59;12.90;78.90
47338;DHT22;33069;51.970;5.892;2023-11-19T10:13:45;12.90;78.80
47338;DHT22;33069;51.970;5.892;2023-11-19T10:16:34;12.80;78.20
47338;DHT22;33069;51.970;5.892;2023-11-19T10:19:21;12.90;78.60
47338;DHT22;33069;51.970;5.892;2023-11-19T10:22:07;12.80;78.10
47338;DHT22;33069;51.970;5.892;2023-11-19T10:24:53;12.90;78.40
47338;DHT22;33069;51.970;5.892;2023-11-19T10:27:39;12.90;78.00
47338;DHT22;33069;51.970;5.892;2023-11-19T10:30:28;12.90;78.10
47338;DHT22;33069;51.970;5.892;2023-11-19T10:33:15;12.90;78.10
47338;DHT22;33069;51.970;5.892;2023-11-19T10:36:03;12.90;78.40
47338;DHT22;33069;51.970;5.892;2023-11-19T10:38:56;12.90;77.90
47338;DHT22;33069;51.970;5.892;2023-11-19T10:41:42;13.00;77.60
47338;DHT22;33069;51.970;5.892;2023-11-19T10:44:32;13.00;77.70
47338;DHT22;33069;51.970;5.892;2023-11-19T10:47:23;13.10;77.20
47338;DHT22;33069;51.970;5.892;2023-11-19T10:50:09;13.10;77.60
47338;DHT22;33069;51.970;5.892;2023-11-19T10:52:57;13.30;77.40
47338;DHT22;33069;51.970;5.892;2023-11-19T10:55:47;13.30;76.60
47338;DHT22;33069;51.970;5.892;2023-11-19T10:58:33;13.30;76.40
47338;DHT22;33069;51.970;5.892;2023-11-19T11:01:24;13.40;76.00
47338;DHT22;33069;51.970;5.892;2023-11-19T11:04:14;13.40;75.60
47338;DHT22;33069;51.970;5.892;2023-11-19T11:07:02;13.40;75.60
47338;DHT22;33069;51.970;5.892;2023-11-19T11:09:49;13.30;76.10
47338;DHT22;33069;51.970;5.892;2023-11-19T11:12:37;13.40;75.70
47338;DHT22;33069;51.970;5.892;2023-11-19T11:15:27;13.50;75.20
47338;DHT22;33069;51.970;5.892;2023-11-19T11:18:15;13.60;74.40
47338;DHT22;33069;51.970;5.892;2023-11-19T11:21:07;13.70;74.10
47338;DHT22;33069;51.970;5.892;2023-11-19T11:27:51;13.70;74.00
47338;DHT22;33069;51.970;5.892;2023-11-19T11:31:08;13.70;73.50
47338;DHT22;33069;51.970;5.892;2023-11-19T11:34:14;13.70;73.90
47338;DHT22;33069;51.970;5.892;2023-11-19T11:37:18;13.70;73.80
47338;DHT22;33069;51.970;5.892;2023-11-19T11:40:05;13.70;74.10
47338;DHT22;33069;51.970;5.892;2023-11-19T11:42:55;13.80;73.70
47338;DHT22;33069;51.970;5.892;2023-11-19T11:45:41;13.70;74.30
47338;DHT22;33069;51.970;5.892;2023-11-19T11:48:30;13.70;74.40
47338;DHT22;33069;51.970;5.892;2023-11-19T11:51:16;13.70;74.00
47338;DHT22;33069;51.970;5.892;2023-11-19T11:54:02;13.80;74.50
47338;DHT22;33069;51.970;5.892;2023-11-19T11:57:11;13.80;73.50
47338;DHT22;33069;51.970;5.892;2023-11-19T11:59:57;13.80;73.30
47338;DHT22;33069;51.970;5.892;2023-11-19T12:02:44;13.60;73.80
47338;DHT22;33069;51.970;5.892;2023-11-19T12:05:30;13.60;74.30
47338;DHT22;33069;51.970;5.892;2023-11-19T12:08:25;13.50;74.70
47338;DHT22;33069;51.970;5.892;2023-11-19T12:11:11;13.50;75.20
47338;DHT22;33069;51.970;5.892;2023-11-19T12:13:57;13.60;74.60
47338;DHT22;33069;51.970;5.892;2023-11-19T12:16:47;13.70;73.60
47338;DHT22;33069;51.970;5.892;2023-11-19T12:19:34;13.70;73.30
47338;DHT22;33069;51.970;5.892;2023-11-19T12:22:20;13.70;73.40
47338;DHT22;33069;51.970;5.892;2023-11-19T12:25:07;13.70;73.60
47338;DHT22;33069;51.970;5.892;2023-11-19T12:27:54;13.80;72.90
47338;DHT22;33069;51.970;5.892;2023-11-19T12:30:40;13.90;73.20
47338;DHT22;33069;51.970;5.892;2023-11-19T12:33:26;13.80;72.90
47338;DHT22;33069;51.970;5.892;2023-11-19T12:36:12;13.90;72.70
47338;DHT22;33069;51.970;5.892;2023-11-19T12:38:58;13.90;72.60
47338;DHT22;33069;51.970;5.892;2023-11-19T12:41:51;13.80;72.80
47338;DHT22;33069;51.970;5.892;2023-11-19T12:44:37;13.80;72.50
47338;DHT22;33069;51.970;5.892;2023-11-19T12:47:23;13.90;71.80
47338;DHT22;33069;51.970;5.892;2023-11-19T12:50:10;14.10;71.80
47338;DHT22;33069;51.970;5.892;2023-11-19T12:52:56;14.10;71.00
47338;DHT22;33069;51.970;5.892;2023-11-19T12:55:43;14.00;70.80
47338;DHT22;33069;51.970;5.892;2023-11-19T12:58:33;13.90;71.40
47338;DHT22;33069;51.970;5.892;2023-11-19T13:01:20;13.90;71.00
47338;DHT22;33069;51.970;5.892;2023-11-19T13:04:19;14.00;71.50
47338;DHT22;33069;51.970;5.892;2023-11-19T13:07:05;13.90;71.80
47338;DHT22;33069;51.970;5.892;2023-11-19T13:09:51;14.00;71.10
47338;DHT22;33069;51.970;5.892;2023-11-19T13:13:08;14.00;71.00
47338;DHT22;33069;51.970;5.892;2023-11-19T13:16:02;13.90;71.70
47338;DHT22;33069;51.970;5.892;2023-11-19T13:18:48;14.00;72.10
47338;DHT22;33069;51.970;5.892;2023-11-19T13:21:34;13.90;72.50
47338;DHT22;33069;51.970;5.892;2023-11-19T13:24:20;13.80;73.10
47338;DHT22;33069;51.970;5.892;2023-11-19T13:27:06;13.80;73.20
47338;DHT22;33069;51.970;5.892;2023-11-19T13:29:52;13.70;73.50
47338;DHT22;33069;51.970;5.892;2023-11-19T13:32:38;13.70;73.70
47338;DHT22;33069;51.970;5.892;2023-11-19T13:35:24;13.60;73.70
47338;DHT22;33069;51.970;5.892;2023-11-19T13:38:13;13.70;73.80
47338;DHT22;33069;51.970;5.892;2023-11-19T13:40:59;13.60;73.80
47338;DHT22;33069;51.970;5.892;2023-11-19T13:43:45;13.60;74.60
47338;DHT22;33069;51.970;5.892;2023-11-19T13:46:31;13.60;74.30
47338;DHT22;33069;51.970;5.892;2023-11-19T13:49:17;13.60;74.30
47338;DHT22;33069;51.970;5.892;2023-11-19T13:52:05;13.60;74.50
47338;DHT22;33069;51.970;5.892;2023-11-19T13:54:51;13.50;75.10
47338;DHT22;33069;51.970;5.892;2023-11-19T13:57:38;13.30;76.00
47338;DHT22;33069;51.970;5.892;2023-11-19T14:00:24;13.30;76.80
47338;DHT22;33069;51.970;5.892;2023-11-19T14:03:10;13.10;77.50
47338;DHT22;33069;51.970;5.892;2023-11-19T14:05:56;13.00;78.60
47338;DHT22;33069;51.970;5.892;2023-11-19T14:08:44;13.10;78.70
47338;DHT22;33069;51.970;5.892;2023-11-19T14:11:30;13.00;79.00
47338;DHT22;33069;51.970;5.892;2023-11-19T14:14:16;13.00;79.20
47338;DHT22;33069;51.970;5.892;2023-11-19T14:17:02;12.80;80.00
47338;DHT22;33069;51.970;5.892;2023-11-19T14:19:49;12.90;80.40
47338;DHT22;33069;51.970;5.892;2023-11-19T14:22:35;12.90;80.60
47338;DHT22;33069;51.970;5.892;2023-11-19T14:25:21;12.90;81.00
47338;DHT22;33069;51.970;5.892;2023-11-19T14:28:09;13.10;80.70
47338;DHT22;33069;51.970;5.892;2023-11-19T14:30:55;13.00;80.30
47338;DHT22;33069;51.970;5.892;2023-11-19T14:33:42;13.00;80.50
47338;DHT22;33069;51.970;5.892;2023-11-19T14:36:28;13.00;80.50
47338;DHT22;33069;51.970;5.892;2023-11-19T14:39:14;13.00;80.20
47338;DHT22;33069;51.970;5.892;2023-11-19T14:42:00;13.00;80.20
47338;DHT22;33069;51.970;5.892;2023-11-19T14:44:50;12.80;80.00
47338;DHT22;33069;51.970;5.892;2023-11-19T14:47:38;12.80;80.10
47338;DHT22;33069;51.970;5.892;2023-11-19T14:50:24;12.70;80.50
47338;DHT22;33069;51.970;5.892;2023-11-19T14:53:10;12.60;80.70
47338;DHT22;33069;51.970;5.892;2023-11-19T14:55:56;12.60;80.70
47338;DHT22;33069;51.970;5.892;2023-11-19T14:58:42;12.50;81.00
47338;DHT22;33069;51.970;5.892;2023-11-19T15:01:29;12.40;81.30
47338;DHT22;33069;51.970;5.892;2023-11-19T15:04:16;12.40;81.20
47338;DHT22;33069;51.970;5.892;2023-11-19T15:07:03;12.50;81.30
47338;DHT22;33069;51.970;5.892;2023-11-19T15:09:50;12.40;81.20
47338;DHT22;33069;51.970;5.892;2023-11-19T15:12:39;12.30;81.20
47338;DHT22;33069;51.970;5.892;2023-11-19T15:15:27;12.40;80.80
47338;DHT22;33069;51.970;5.892;2023-11-19T15:18:13;12.40;80.30
47338;DHT22;33069;51.970;5.892;2023-11-19T15:20:59;12.40;80.40
47338;DHT22;33069;51.970;5.892;2023-11-19T15:23:45;12.30;80.50
47338;DHT22;33069;51.970;5.892;2023-11-19T15:26:30;12.30;80.60
47338;DHT22;33069;51.970;5.892;2023-11-19T15:29:16;12.30;80.60
47338;DHT22;33069;51.970;5.892;2023-11-19T15:32:03;12.30;80.80
47338;DHT22;33069;51.970;5.892;2023-11-19T15:34:49;12.30;80.70
47338;DHT22;33069;51.970;5.892;2023-11-19T15:37:35;12.40;80.50
47338;DHT22;33069;51.970;5.892;2023-11-19T15:40:21;12.40;80.40
47338;DHT22;33069;51.970;5.892;2023-11-19T15:43:07;12.40;80.40
47338;DHT22;33069;51.970;5.892;2023-11-19T15:45:53;12.40;80.50
47338;DHT22;33069;51.970;5.892;2023-11-19T15:48:39;12.40;80.40
47338;DHT22;33069;51.970;5.892;2023-11-19T15:51:25;12.50;80.20
47338;DHT22;33069;51.970;5.892;2023-11-19T15:54:10;12.50;80.30
47338;DHT22;33069;51.970;5.892;2023-11-19T15:56:57;12.40;80.60
47338;DHT22;33069;51.970;5.892;2023-11-19T15:59:42;12.40;80.70
47338;DHT22;33069;51.970;5.892;2023-11-19T16:02:28;12.30;81.00
47338;DHT22;33069;51.970;5.892;2023-11-19T16:05:15;12.30;81.30
47338;DHT22;33069;51.970;5.892;2023-11-19T16:08:01;12.20;81.70
47338;DHT22;33069;51.970;5.892;2023-11-19T16:10:47;12.20;81.90
47338;DHT22;33069;51.970;5.892;2023-11-19T16:13:34;12.10;82.30
47338;DHT22;33069;51.970;5.892;2023-11-19T16:16:20;12.10;82.70
47338;DHT22;33069;51.970;5.892;2023-11-19T16:19:07;12.00;83.10
47338;DHT22;33069;51.970;5.892;2023-11-19T16:21:53;12.00;83.40
47338;DHT22;33069;51.970;5.892;2023-11-19T16:24:39;12.00;83.50
47338;DHT22;33069;51.970;5.892;2023-11-19T16:27:25;12.00;83.60
47338;DHT22;33069;51.970;5.892;2023-11-19T16:30:11;12.10;83.70
47338;DHT22;33069;51.970;5.892;2023-11-19T16:32:58;12.00;83.80
47338;DHT22;33069;51.970;5.892;2023-11-19T16:35:46;12.00;83.80
47338;DHT22;33069;51.970;5.892;2023-11-19T16:38:32;12.00;83.80
47338;DHT22;33069;51.970;5.892;2023-11-19T16:41:19;12.00;83.80
47338;DHT22;33069;51.970;5.892;2023-11-19T16:44:08;12.10;83.70
47338;DHT22;33069;51.970;5.892;2023-11-19T16:46:55;12.10;83.50
47338;DHT22;33069;51.970;5.892;2023-11-19T16:49:41;12.10;83.30
47338;DHT22;33069;51.970;5.892;2023-11-19T16:52:27;12.10;82.90
47338;DHT22;33069;51.970;5.892;2023-11-19T16:55:14;12.20;82.50
47338;DHT22;33069;51.970;5.892;2023-11-19T16:58:01;12.20;82.20
47338;DHT22;33069;51.970;5.892;2023-11-19T17:00:47;12.20;82.40
47338;DHT22;33069;51.970;5.892;2023-11-19T17:03:35;12.00;83.10
47338;DHT22;33069;51.970;5.892;2023-11-19T17:06:21;12.00;84.10
47338;DHT22;33069;51.970;5.892;2023-11-19T17:09:07;11.80;85.00
47338;DHT22;33069;51.970;5.892;2023-11-19T17:11:58;11.70;85.80
47338;DHT22;33069;51.970;5.892;2023-11-19T17:14:44;11.60;86.60
47338;DHT22;33069;51.970;5.892;2023-11-19T17:17:33;11.50;87.30
47338;DHT22;33069;51.970;5.892;2023-11-19T17:20:21;11.40;87.70
47338;DHT22;33069;51.970;5.892;2023-11-19T17:23:07;11.40;88.10
47338;DHT22;33069;51.970;5.892;2023-11-19T17:25:54;11.30;88.50
47338;DHT22;33069;51.970;5.892;2023-11-19T17:28:40;11.30;88.70
47338;DHT22;33069;51.970;5.892;2023-11-19T17:31:26;11.30;89.00
47338;DHT22;33069;51.970;5.892;2023-11-19T17:34:12;11.30;89.20
47338;DHT22;33069;51.970;5.892;2023-11-19T17:36:58;11.30;89.40
47338;DHT22;33069;51.970;5.892;2023-11-19T17:39:45;11.20;89.50